sensor_id;sensor_type;location;lat;lon;timestamp;P1;durP1;ratioP1;P2;durP2;ratioP2
39680;SDS011;26327;42.550;23.120;2024-01-15T00:02:13;16.05;;;6.95;;
39680;SDS011;26327;42.550;23.120;2024-01-15T00:04:38;58.97;;;17.90;;
39680;SDS011;26327;42.550;23.120;2024-01-15T00:07:08;28.17;;;10.05;;
39680;SDS011;26327;42.550;23.120;2024-01-15T00:09:34;13.50;;;4.37;;
39680;SDS011;26327;42.550;23.120;2024-01-15T00:11:59;12.70;;;4.53;;
39680;SDS011;26327;42.550;23.120;2024-01-15T00:14:25;9.45;;;4.28;;
39680;SDS011;26327;42.550;23.120;2024-01-15T00:16:51;10.60;;;4.30;;
39680;SDS011;26327;42.550;23.120;2024-01-15T00:19:19;13.90;;;5.53;;
39680;SDS011;26327;42.550;23.120;2024-01-15T00:21:44;23.42;;;8.73;;
39680;SDS011;26327;42.550;23.120;2024-01-15T00:24:10;14.43;;;6.20;;
39680;SDS011;26327;42.550;23.120;2024-01-15T00:26:35;30.63;;;8.90;;
39680;SDS011;26327;42.550;23.120;2024-01-15T00:29:01;16.80;;;6.15;;
39680;SDS011;26327;42.550;23.120;2024-01-15T00:31:28;13.98;;;4.45;;
39680;SDS011;26327;42.550;23.120;2024-01-15T00:33:54;15.32;;;4.35;;
39680;SDS011;26327;42.550;23.120;2024-01-15T00:36:20;21.70;;;6.68;;
39680;SDS011;26327;42.550;23.120;2024-01-15T00:38:46;14.02;;;5.30;;
39680;SDS011;26327;42.550;23.120;2024-01-15T00:41:12;13.60;;;5.15;;
39680;SDS011;26327;42.550;23.120;2024-01-15T00:43:38;22.00;;;7.57;;
39680;SDS011;26327;42.550;23.120;2024-01-15T00:46:03;16.92;;;5.53;;
39680;SDS011;26327;42.550;23.120;2024-01-15T00:48:29;13.25;;;5.55;;
39680;SDS011;26327;42.550;23.120;2024-01-15T00:50:54;12.07;;;4.82;;
39680;SDS011;26327;42.550;23.120;2024-01-15T00:53:20;20.17;;;7.82;;
39680;SDS011;26327;42.550;23.120;2024-01-15T00:55:47;25.88;;;7.38;;
39680;SDS011;26327;42.550;23.120;2024-01-15T00:58:13;12.63;;;4.97;;
39680;SDS011;26327;42.550;23.120;2024-01-15T01:00:38;24.05;;;7.20;;
39680;SDS011;26327;42.550;23.120;2024-01-15T01:03:04;24.85;;;8.25;;
39680;SDS011;26327;42.550;23.120;2024-01-15T01:05:29;30.23;;;9.07;;
39680;SDS011;26327;42.550;23.120;2024-01-15T01:07:54;42.17;;;11.55;;
39680;SDS011;26327;42.550;23.120;2024-01-15T01:10:20;23.08;;;7.80;;
39680;SDS011;26327;42.550;23.120;2024-01-15T01:12:45;41.70;;;11.45;;
39680;SDS011;26327;42.550;23.120;2024-01-15T01:15:11;35.67;;;9.68;;
39680;SDS011;26327;42.550;23.120;2024-01-15T01:17:36;39.15;;;11.20;;
39680;SDS011;26327;42.550;23.120;2024-01-15T01:20:02;25.55;;;7.85;;
39680;SDS011;26327;42.550;23.120;2024-01-15T01:22:29;24.52;;;6.95;;
39680;SDS011;26327;42.550;23.120;2024-01-15T01:24:55;23.90;;;7.07;;
39680;SDS011;26327;42.550;23.120;2024-01-15T01:27:21;11.73;;;4.45;;
39680;SDS011;26327;42.550;23.120;2024-01-15T01:29:46;11.38;;;5.00;;
39680;SDS011;26327;42.550;23.120;2024-01-15T01:32:12;12.88;;;4.80;;
39680;SDS011;26327;42.550;23.120;2024-01-15T01:34:40;13.52;;;4.55;;
39680;SDS011;26327;42.550;23.120;2024-01-15T01:37:07;15.23;;;4.65;;
39680;SDS011;26327;42.550;23.120;2024-01-15T01:39:33;15.27;;;5.40;;
39680;SDS011;26327;42.550;23.120;2024-01-15T01:41:58;10.68;;;4.75;;
39680;SDS011;26327;42.550;23.120;2024-01-15T01:44:24;9.25;;;4.47;;
39680;SDS011;26327;42.550;23.120;2024-01-15T01:46:49;12.80;;;4.90;;
39680;SDS011;26327;42.550;23.120;2024-01-15T01:49:15;16.67;;;5.88;;
39680;SDS011;26327;42.550;23.120;2024-01-15T01:51:41;13.68;;;5.10;;
39680;SDS011;26327;42.550;23.120;2024-01-15T01:54:06;12.70;;;5.18;;
39680;SDS011;26327;42.550;23.120;2024-01-15T01:56:34;14.85;;;5.38;;
39680;SDS011;26327;42.550;23.120;2024-01-15T01:59:01;9.88;;;4.35;;
39680;SDS011;26327;42.550;23.120;2024-01-15T02:01:28;9.30;;;4.32;;
39680;SDS011;26327;42.550;23.120;2024-01-15T02:03:54;9.45;;;5.38;;
39680;SDS011;26327;42.550;23.120;2024-01-15T02:06:21;12.43;;;4.85;;
39680;SDS011;26327;42.550;23.120;2024-01-15T02:08:48;9.43;;;4.57;;
39680;SDS011;26327;42.550;23.120;2024-01-15T02:11:13;9.18;;;3.90;;
39680;SDS011;26327;42.550;23.120;2024-01-15T02:13:39;14.60;;;4.90;;
39680;SDS011;26327;42.550;23.120;2024-01-15T02:16:05;10.35;;;4.78;;
39680;SDS011;26327;42.550;23.120;2024-01-15T02:18:38;9.85;;;4.28;;
39680;SDS011;26327;42.550;23.120;2024-01-15T02:21:05;29.05;;;8.10;;
39680;SDS011;26327;42.550;23.120;2024-01-15T02:23:31;24.00;;;8.90;;
39680;SDS011;26327;42.550;23.120;2024-01-15T02:25:56;27.38;;;8.25;;
39680;SDS011;26327;42.550;23.120;2024-01-15T02:28:22;13.45;;;5.38;;
39680;SDS011;26327;42.550;23.120;2024-01-15T02:30:47;17.15;;;6.68;;
39680;SDS011;26327;42.550;23.120;2024-01-15T02:33:12;17.35;;;6.95;;
39680;SDS011;26327;42.550;23.120;2024-01-15T02:35:38;15.20;;;5.32;;
39680;SDS011;26327;42.550;23.120;2024-01-15T02:38:07;17.40;;;6.18;;
39680;SDS011;26327;42.550;23.120;2024-01-15T02:40:33;16.85;;;6.03;;
39680;SDS011;26327;42.550;23.120;2024-01-15T02:42:59;19.58;;;8.82;;
39680;SDS011;26327;42.550;23.120;2024-01-15T02:45:25;14.65;;;7.05;;
39680;SDS011;26327;42.550;23.120;2024-01-15T02:47:52;23.73;;;10.88;;
39680;SDS011;26327;42.550;23.120;2024-01-15T02:50:17;33.30;;;12.65;;
39680;SDS011;26327;42.550;23.120;2024-01-15T02:52:43;29.35;;;10.43;;
39680;SDS011;26327;42.550;23.120;2024-01-15T02:55:08;25.15;;;10.45;;
39680;SDS011;26327;42.550;23.120;2024-01-15T02:57:34;13.43;;;6.13;;
39680;SDS011;26327;42.550;23.120;2024-01-15T02:59:59;13.70;;;4.93;;
39680;SDS011;26327;42.550;23.120;2024-01-15T03:02:25;13.45;;;7.03;;
39680;SDS011;26327;42.550;23.120;2024-01-15T03:04:51;28.65;;;9.52;;
39680;SDS011;26327;42.550;23.120;2024-01-15T03:07:16;17.73;;;6.05;;
39680;SDS011;26327;42.550;23.120;2024-01-15T03:09:44;16.05;;;6.03;;
39680;SDS011;26327;42.550;23.120;2024-01-15T03:12:10;29.80;;;9.63;;
39680;SDS011;26327;42.550;23.120;2024-01-15T03:14:36;27.13;;;9.50;;
39680;SDS011;26327;42.550;23.120;2024-01-15T03:17:02;25.98;;;9.95;;
39680;SDS011;26327;42.550;23.120;2024-01-15T03:19:27;10.00;;;4.40;;
39680;SDS011;26327;42.550;23.120;2024-01-15T03:21:53;12.02;;;4.32;;
39680;SDS011;26327;42.550;23.120;2024-01-15T03:24:20;9.75;;;4.18;;
39680;SDS011;26327;42.550;23.120;2024-01-15T03:26:45;10.25;;;4.13;;
39680;SDS011;26327;42.550;23.120;2024-01-15T03:29:10;9.60;;;3.90;;
39680;SDS011;26327;42.550;23.120;2024-01-15T03:31:36;15.63;;;5.72;;
39680;SDS011;26327;42.550;23.120;2024-01-15T03:34:01;10.55;;;5.60;;
39680;SDS011;26327;42.550;23.120;2024-01-15T03:36:26;13.50;;;5.38;;
39680;SDS011;26327;42.550;23.120;2024-01-15T03:38:52;10.43;;;4.70;;
39680;SDS011;26327;42.550;23.120;2024-01-15T03:41:17;10.60;;;5.30;;
39680;SDS011;26327;42.550;23.120;2024-01-15T03:43:43;13.27;;;5.20;;
39680;SDS011;26327;42.550;23.120;2024-01-15T03:46:08;12.48;;;5.75;;
39680;SDS011;26327;42.550;23.120;2024-01-15T03:48:34;12.25;;;6.90;;
39680;SDS011;26327;42.550;23.120;2024-01-15T03:50:59;9.57;;;4.15;;
39680;SDS011;26327;42.550;23.120;2024-01-15T03:53:25;9.00;;;3.63;;
39680;SDS011;26327;42.550;23.120;2024-01-15T03:55:51;8.27;;;3.83;;
39680;SDS011;26327;42.550;23.120;2024-01-15T03:58:17;9.65;;;4.20;;
39680;SDS011;26327;42.550;23.120;2024-01-15T04:00:43;8.65;;;4.03;;
39680;SDS011;26327;42.550;23.120;2024-01-15T04:03:08;7.95;;;3.85;;
39680;SDS011;26327;42.550;23.120;2024-01-15T04:05:34;6.93;;;3.38;;
39680;SDS011;26327;42.550;23.120;2024-01-15T04:07:59;9.10;;;4.35;;
39680;SDS011;26327;42.550;23.120;2024-01-15T04:10:25;7.72;;;3.78;;
39680;SDS011;26327;42.550;23.120;2024-01-15T04:12:50;12.23;;;4.57;;
39680;SDS011;26327;42.550;23.120;2024-01-15T04:15:16;9.75;;;4.55;;
39680;SDS011;26327;42.550;23.120;2024-01-15T04:17:41;13.70;;;4.38;;
39680;SDS011;26327;42.550;23.120;2024-01-15T04:20:07;11.57;;;4.93;;
39680;SDS011;26327;42.550;23.120;2024-01-15T04:22:33;30.17;;;9.15;;
39680;SDS011;26327;42.550;23.120;2024-01-15T04:25:00;14.95;;;5.82;;
39680;SDS011;26327;42.550;23.120;2024-01-15T04:27:25;12.90;;;5.60;;
39680;SDS011;26327;42.550;23.120;2024-01-15T04:29:51;11.98;;;4.75;;
39680;SDS011;26327;42.550;23.120;2024-01-15T04:32:16;11.60;;;5.00;;
39680;SDS011;26327;42.550;23.120;2024-01-15T04:34:42;10.02;;;4.60;;
39680;SDS011;26327;42.550;23.120;2024-01-15T04:37:07;29.13;;;13.52;;
39680;SDS011;26327;42.550;23.120;2024-01-15T04:39:32;24.45;;;11.40;;
39680;SDS011;26327;42.550;23.120;2024-01-15T04:41:58;22.25;;;11.02;;
39680;SDS011;26327;42.550;23.120;2024-01-15T04:44:23;21.30;;;7.85;;
39680;SDS011;26327;42.550;23.120;2024-01-15T04:46:49;14.73;;;7.35;;
39680;SDS011;26327;42.550;23.120;2024-01-15T04:49:14;15.25;;;6.28;;
39680;SDS011;26327;42.550;23.120;2024-01-15T04:51:39;14.65;;;5.70;;
39680;SDS011;26327;42.550;23.120;2024-01-15T04:54:05;13.07;;;5.68;;
39680;SDS011;26327;42.550;23.120;2024-01-15T04:56:30;14.00;;;5.40;;
39680;SDS011;26327;42.550;23.120;2024-01-15T04:58:55;10.95;;;4.63;;
39680;SDS011;26327;42.550;23.120;2024-01-15T05:01:21;10.60;;;4.05;;
39680;SDS011;26327;42.550;23.120;2024-01-15T05:03:46;8.65;;;4.00;;
39680;SDS011;26327;42.550;23.120;2024-01-15T05:06:12;12.38;;;4.53;;
39680;SDS011;26327;42.550;23.120;2024-01-15T05:08:37;11.07;;;4.80;;
39680;SDS011;26327;42.550;23.120;2024-01-15T05:11:02;13.70;;;5.55;;
39680;SDS011;26327;42.550;23.120;2024-01-15T05:13:28;18.77;;;7.90;;
39680;SDS011;26327;42.550;23.120;2024-01-15T05:15:53;11.52;;;5.35;;
39680;SDS011;26327;42.550;23.120;2024-01-15T05:18:19;12.55;;;5.00;;
39680;SDS011;26327;42.550;23.120;2024-01-15T05:20:44;14.73;;;5.35;;
39680;SDS011;26327;42.550;23.120;2024-01-15T05:23:10;9.98;;;4.60;;
39680;SDS011;26327;42.550;23.120;2024-01-15T05:25:35;16.90;;;6.88;;
39680;SDS011;26327;42.550;23.120;2024-01-15T05:28:01;17.55;;;5.63;;
39680;SDS011;26327;42.550;23.120;2024-01-15T05:30:26;15.30;;;6.25;;
39680;SDS011;26327;42.550;23.120;2024-01-15T05:32:51;11.98;;;5.32;;
39680;SDS011;26327;42.550;23.120;2024-01-15T05:35:17;18.63;;;6.20;;
39680;SDS011;26327;42.550;23.120;2024-01-15T05:37:44;12.65;;;5.43;;
39680;SDS011;26327;42.550;23.120;2024-01-15T05:40:11;15.65;;;6.82;;
39680;SDS011;26327;42.550;23.120;2024-01-15T05:42:39;11.25;;;5.03;;
39680;SDS011;26327;42.550;23.120;2024-01-15T05:45:06;16.08;;;5.75;;
39680;SDS011;26327;42.550;23.120;2024-01-15T05:47:32;19.40;;;6.45;;
39680;SDS011;26327;42.550;23.120;2024-01-15T05:49:57;20.83;;;7.55;;
39680;SDS011;26327;42.550;23.120;2024-01-15T05:52:23;22.83;;;9.45;;
39680;SDS011;26327;42.550;23.120;2024-01-15T05:54:49;25.08;;;7.95;;
39680;SDS011;26327;42.550;23.120;2024-01-15T05:57:15;21.38;;;7.50;;
39680;SDS011;26327;42.550;23.120;2024-01-15T05:59:40;21.75;;;8.63;;
39680;SDS011;26327;42.550;23.120;2024-01-15T06:02:06;23.90;;;9.98;;
39680;SDS011;26327;42.550;23.120;2024-01-15T06:04:31;26.10;;;9.10;;
39680;SDS011;26327;42.550;23.120;2024-01-15T06:06:57;20.67;;;8.45;;
39680;SDS011;26327;42.550;23.120;2024-01-15T06:09:22;25.25;;;9.50;;
39680;SDS011;26327;42.550;23.120;2024-01-15T06:11:48;20.70;;;9.00;;
39680;SDS011;26327;42.550;23.120;2024-01-15T06:14:13;23.20;;;9.20;;
39680;SDS011;26327;42.550;23.120;2024-01-15T06:16:38;20.08;;;9.00;;
39680;SDS011;26327;42.550;23.120;2024-01-15T06:19:04;22.23;;;9.20;;
39680;SDS011;26327;42.550;23.120;2024-01-15T06:21:29;21.70;;;8.18;;
39680;SDS011;26327;42.550;23.120;2024-01-15T06:27:16;17.05;;;5.03;;
39680;SDS011;26327;42.550;23.120;2024-01-15T06:33:03;24.20;;;8.82;;
39680;SDS011;26327;42.550;23.120;2024-01-15T06:35:29;16.77;;;6.97;;
39680;SDS011;26327;42.550;23.120;2024-01-15T06:37:54;38.25;;;16.67;;
39680;SDS011;26327;42.550;23.120;2024-01-15T06:40:19;74.70;;;30.48;;
39680;SDS011;26327;42.550;23.120;2024-01-15T06:42:45;71.28;;;31.55;;
39680;SDS011;26327;42.550;23.120;2024-01-15T06:45:10;52.00;;;25.27;;
39680;SDS011;26327;42.550;23.120;2024-01-15T06:47:36;26.42;;;10.88;;
39680;SDS011;26327;42.550;23.120;2024-01-15T06:50:01;19.40;;;8.18;;
39680;SDS011;26327;42.550;23.120;2024-01-15T06:52:26;13.60;;;6.35;;
39680;SDS011;26327;42.550;23.120;2024-01-15T06:54:52;10.48;;;4.72;;
39680;SDS011;26327;42.550;23.120;2024-01-15T06:57:17;14.18;;;7.65;;
39680;SDS011;26327;42.550;23.120;2024-01-15T06:59:45;18.13;;;6.63;;
39680;SDS011;26327;42.550;23.120;2024-01-15T07:02:10;20.40;;;8.45;;
39680;SDS011;26327;42.550;23.120;2024-01-15T07:04:35;14.35;;;7.32;;
39680;SDS011;26327;42.550;23.120;2024-01-15T07:07:01;19.25;;;6.72;;
39680;SDS011;26327;42.550;23.120;2024-01-15T07:09:26;17.58;;;5.80;;
39680;SDS011;26327;42.550;23.120;2024-01-15T07:11:51;13.50;;;5.28;;
39680;SDS011;26327;42.550;23.120;2024-01-15T07:14:17;16.83;;;6.18;;
39680;SDS011;26327;42.550;23.120;2024-01-15T07:16:42;12.40;;;5.22;;
39680;SDS011;26327;42.550;23.120;2024-01-15T07:19:08;12.15;;;5.03;;
39680;SDS011;26327;42.550;23.120;2024-01-15T07:21:33;8.70;;;4.35;;
39680;SDS011;26327;42.550;23.120;2024-01-15T07:27:20;10.98;;;5.47;;
39680;SDS011;26327;42.550;23.120;2024-01-15T07:29:46;14.35;;;5.43;;
39680;SDS011;26327;42.550;23.120;2024-01-15T07:32:11;14.05;;;4.82;;
39680;SDS011;26327;42.550;23.120;2024-01-15T07:34:37;10.13;;;4.32;;
39680;SDS011;26327;42.550;23.120;2024-01-15T07:37:02;13.10;;;6.43;;
39680;SDS011;26327;42.550;23.120;2024-01-15T07:39:28;9.05;;;4.50;;
39680;SDS011;26327;42.550;23.120;2024-01-15T07:41:55;13.02;;;5.85;;
39680;SDS011;26327;42.550;23.120;2024-01-15T07:44:21;71.90;;;22.95;;
39680;SDS011;26327;42.550;23.120;2024-01-15T07:46:46;25.13;;;10.10;;
39680;SDS011;26327;42.550;23.120;2024-01-15T07:49:13;19.13;;;8.80;;
39680;SDS011;26327;42.550;23.120;2024-01-15T07:51:38;17.52;;;7.30;;
39680;SDS011;26327;42.550;23.120;2024-01-15T07:54:05;28.27;;;11.93;;
39680;SDS011;26327;42.550;23.120;2024-01-15T07:56:31;20.25;;;9.05;;
39680;SDS011;26327;42.550;23.120;2024-01-15T07:58:57;18.55;;;7.18;;
39680;SDS011;26327;42.550;23.120;2024-01-15T08:01:22;16.73;;;6.05;;
39680;SDS011;26327;42.550;23.120;2024-01-15T08:03:47;14.00;;;5.50;;
39680;SDS011;26327;42.550;23.120;2024-01-15T08:06:13;18.80;;;5.45;;
39680;SDS011;26327;42.550;23.120;2024-01-15T08:08:39;12.38;;;4.00;;
39680;SDS011;26327;42.550;23.120;2024-01-15T08:11:04;18.15;;;4.88;;
39680;SDS011;26327;42.550;23.120;2024-01-15T08:13:31;19.52;;;4.55;;
39680;SDS011;26327;42.550;23.120;2024-01-15T08:15:56;9.98;;;3.95;;
39680;SDS011;26327;42.550;23.120;2024-01-15T08:18:22;9.30;;;3.30;;
39680;SDS011;26327;42.550;23.120;2024-01-15T08:20:47;16.58;;;4.28;;
39680;SDS011;26327;42.550;23.120;2024-01-15T08:23:13;20.63;;;5.05;;
39680;SDS011;26327;42.550;23.120;2024-01-15T08:25:38;16.52;;;4.88;;
39680;SDS011;26327;42.550;23.120;2024-01-15T08:28:04;14.80;;;3.83;;
39680;SDS011;26327;42.550;23.120;2024-01-15T08:30:29;13.98;;;4.25;;
39680;SDS011;26327;42.550;23.120;2024-01-15T08:32:55;21.17;;;5.03;;
39680;SDS011;26327;42.550;23.120;2024-01-15T08:35:21;8.40;;;3.03;;
39680;SDS011;26327;42.550;23.120;2024-01-15T08:37:50;18.13;;;4.97;;
39680;SDS011;26327;42.550;23.120;2024-01-15T08:40:16;8.98;;;3.35;;
39680;SDS011;26327;42.550;23.120;2024-01-15T08:42:42;8.75;;;3.35;;
39680;SDS011;26327;42.550;23.120;2024-01-15T08:45:08;14.23;;;3.72;;
39680;SDS011;26327;42.550;23.120;2024-01-15T08:47:33;9.80;;;3.47;;
39680;SDS011;26327;42.550;23.120;2024-01-15T08:49:59;13.00;;;3.67;;
39680;SDS011;26327;42.550;23.120;2024-01-15T08:52:25;14.75;;;3.80;;
39680;SDS011;26327;42.550;23.120;2024-01-15T08:54:50;15.65;;;4.55;;
39680;SDS011;26327;42.550;23.120;2024-01-15T08:57:15;12.10;;;3.67;;
39680;SDS011;26327;42.550;23.120;2024-01-15T08:59:41;12.70;;;4.55;;
39680;SDS011;26327;42.550;23.120;2024-01-15T09:02:07;15.52;;;6.38;;
39680;SDS011;26327;42.550;23.120;2024-01-15T09:04:32;14.68;;;5.15;;
39680;SDS011;26327;42.550;23.120;2024-01-15T09:06:58;38.45;;;10.55;;
39680;SDS011;26327;42.550;23.120;2024-01-15T09:09:23;17.10;;;7.07;;
39680;SDS011;26327;42.550;23.120;2024-01-15T09:11:49;17.52;;;5.10;;
39680;SDS011;26327;42.550;23.120;2024-01-15T09:14:16;20.48;;;6.10;;
39680;SDS011;26327;42.550;23.120;2024-01-15T09:16:42;19.63;;;5.30;;
39680;SDS011;26327;42.550;23.120;2024-01-15T09:19:07;12.20;;;4.57;;
39680;SDS011;26327;42.550;23.120;2024-01-15T09:21:33;13.38;;;6.18;;
39680;SDS011;26327;42.550;23.120;2024-01-15T09:23:58;17.15;;;7.47;;
39680;SDS011;26327;42.550;23.120;2024-01-15T09:26:23;20.27;;;6.15;;
39680;SDS011;26327;42.550;23.120;2024-01-15T09:28:49;22.80;;;8.82;;
39680;SDS011;26327;42.550;23.120;2024-01-15T09:31:14;23.35;;;8.13;;
39680;SDS011;26327;42.550;23.120;2024-01-15T09:33:42;26.08;;;7.55;;
39680;SDS011;26327;42.550;23.120;2024-01-15T09:36:08;18.85;;;6.00;;
39680;SDS011;26327;42.550;23.120;2024-01-15T09:38:33;21.92;;;7.97;;
39680;SDS011;26327;42.550;23.120;2024-01-15T09:40:59;14.15;;;4.97;;
39680;SDS011;26327;42.550;23.120;2024-01-15T09:43:25;17.65;;;6.07;;
39680;SDS011;26327;42.550;23.120;2024-01-15T09:45:51;13.27;;;5.38;;
39680;SDS011;26327;42.550;23.120;2024-01-15T09:48:18;25.70;;;6.88;;
39680;SDS011;26327;42.550;23.120;2024-01-15T09:50:43;18.27;;;6.75;;
39680;SDS011;26327;42.550;23.120;2024-01-15T09:53:09;32.38;;;8.25;;
39680;SDS011;26327;42.550;23.120;2024-01-15T09:55:35;13.98;;;5.43;;
39680;SDS011;26327;42.550;23.120;2024-01-15T09:58:05;10.65;;;4.80;;
39680;SDS011;26327;42.550;23.120;2024-01-15T10:00:30;9.48;;;4.07;;
39680;SDS011;26327;42.550;23.120;2024-01-15T10:02:58;11.10;;;4.45;;
39680;SDS011;26327;42.550;23.120;2024-01-15T10:05:25;14.90;;;6.10;;
39680;SDS011;26327;42.550;23.120;2024-01-15T10:07:51;11.90;;;3.90;;
39680;SDS011;26327;42.550;23.120;2024-01-15T10:10:19;10.32;;;3.90;;
39680;SDS011;26327;42.550;23.120;2024-01-15T10:12:46;16.65;;;5.65;;
39680;SDS011;26327;42.550;23.120;2024-01-15T10:15:12;10.00;;;4.07;;
39680;SDS011;26327;42.550;23.120;2024-01-15T10:17:38;10.07;;;4.28;;
39680;SDS011;26327;42.550;23.120;2024-01-15T10:20:13;11.88;;;4.90;;
39680;SDS011;26327;42.550;23.120;2024-01-15T10:22:41;10.68;;;4.95;;
39680;SDS011;26327;42.550;23.120;2024-01-15T10:25:11;10.98;;;4.93;;
39680;SDS011;26327;42.550;23.120;2024-01-15T10:27:38;11.85;;;4.28;;
39680;SDS011;26327;42.550;23.120;2024-01-15T10:30:03;9.15;;;5.15;;
39680;SDS011;26327;42.550;23.120;2024-01-15T10:32:31;8.43;;;3.92;;
39680;SDS011;26327;42.550;23.120;2024-01-15T10:34:57;7.35;;;3.30;;
39680;SDS011;26327;42.550;23.120;2024-01-15T10:37:23;9.05;;;3.90;;
39680;SDS011;26327;42.550;23.120;2024-01-15T10:39:49;9.98;;;5.03;;
39680;SDS011;26327;42.550;23.120;2024-01-15T10:42:15;7.63;;;3.10;;
39680;SDS011;26327;42.550;23.120;2024-01-15T10:44:42;7.00;;;3.28;;
39680;SDS011;26327;42.550;23.120;2024-01-15T10:47:08;8.32;;;2.85;;
39680;SDS011;26327;42.550;23.120;2024-01-15T10:49:34;9.65;;;3.15;;
39680;SDS011;26327;42.550;23.120;2024-01-15T10:52:00;11.38;;;5.07;;
39680;SDS011;26327;42.550;23.120;2024-01-15T10:54:27;9.57;;;4.30;;
39680;SDS011;26327;42.550;23.120;2024-01-15T10:56:53;11.07;;;4.32;;
39680;SDS011;26327;42.550;23.120;2024-01-15T10:59:21;29.33;;;12.93;;
39680;SDS011;26327;42.550;23.120;2024-01-15T11:01:47;7.22;;;4.32;;
39680;SDS011;26327;42.550;23.120;2024-01-15T11:04:14;8.60;;;3.90;;
39680;SDS011;26327;42.550;23.120;2024-01-15T11:06:49;13.35;;;5.25;;
39680;SDS011;26327;42.550;23.120;2024-01-15T11:09:17;13.38;;;4.43;;
39680;SDS011;26327;42.550;23.120;2024-01-15T11:15:05;12.77;;;6.30;;
39680;SDS011;26327;42.550;23.120;2024-01-15T11:23:45;4.20;;;2.35;;
39680;SDS011;26327;42.550;23.120;2024-01-15T11:26:28;7.38;;;4.13;;
39680;SDS011;26327;42.550;23.120;2024-01-15T11:28:57;12.00;;;6.03;;
39680;SDS011;26327;42.550;23.120;2024-01-15T11:34:10;11.80;;;5.35;;
39680;SDS011;26327;42.550;23.120;2024-01-15T11:41:56;10.50;;;5.18;;
39680;SDS011;26327;42.550;23.120;2024-01-15T11:44:22;13.27;;;4.45;;
39680;SDS011;26327;42.550;23.120;2024-01-15T11:46:58;8.18;;;3.67;;
39680;SDS011;26327;42.550;23.120;2024-01-15T11:52:24;11.80;;;4.63;;
39680;SDS011;26327;42.550;23.120;2024-01-15T12:01:07;14.07;;;5.75;;
39680;SDS011;26327;42.550;23.120;2024-01-15T12:03:33;11.77;;;4.15;;
39680;SDS011;26327;42.550;23.120;2024-01-15T12:05:59;15.43;;;5.30;;
39680;SDS011;26327;42.550;23.120;2024-01-15T12:08:25;13.05;;;5.50;;
39680;SDS011;26327;42.550;23.120;2024-01-15T12:10:52;13.52;;;4.85;;
39680;SDS011;26327;42.550;23.120;2024-01-15T12:13:18;11.48;;;4.15;;
39680;SDS011;26327;42.550;23.120;2024-01-15T12:15:43;16.63;;;5.00;;
39680;SDS011;26327;42.550;23.120;2024-01-15T12:18:11;11.88;;;4.75;;
39680;SDS011;26327;42.550;23.120;2024-01-15T12:20:37;14.27;;;4.72;;
39680;SDS011;26327;42.550;23.120;2024-01-15T12:23:04;12.02;;;5.70;;
39680;SDS011;26327;42.550;23.120;2024-01-15T12:25:35;13.88;;;7.15;;
39680;SDS011;26327;42.550;23.120;2024-01-15T12:28:01;12.30;;;4.75;;
39680;SDS011;26327;42.550;23.120;2024-01-15T12:30:26;13.05;;;6.47;;
39680;SDS011;26327;42.550;23.120;2024-01-15T12:32:54;14.63;;;7.25;;
39680;SDS011;26327;42.550;23.120;2024-01-15T12:35:20;9.52;;;4.18;;
39680;SDS011;26327;42.550;23.120;2024-01-15T12:37:46;11.55;;;4.88;;
39680;SDS011;26327;42.550;23.120;2024-01-15T12:40:12;10.10;;;4.35;;
39680;SDS011;26327;42.550;23.120;2024-01-15T12:42:39;6.05;;;2.40;;
39680;SDS011;26327;42.550;23.120;2024-01-15T12:45:05;9.32;;;2.80;;
39680;SDS011;26327;42.550;23.120;2024-01-15T12:47:32;6.22;;;2.45;;
39680;SDS011;26327;42.550;23.120;2024-01-15T12:49:58;6.20;;;2.80;;
39680;SDS011;26327;42.550;23.120;2024-01-15T12:52:26;7.32;;;2.40;;
39680;SDS011;26327;42.550;23.120;2024-01-15T12:54:55;7.65;;;2.70;;
39680;SDS011;26327;42.550;23.120;2024-01-15T12:57:21;4.63;;;2.22;;
39680;SDS011;26327;42.550;23.120;2024-01-15T12:59:48;11.73;;;4.18;;
39680;SDS011;26327;42.550;23.120;2024-01-15T13:02:15;6.65;;;3.22;;
39680;SDS011;26327;42.550;23.120;2024-01-15T13:04:41;11.52;;;4.00;;
39680;SDS011;26327;42.550;23.120;2024-01-15T13:07:07;7.75;;;4.07;;
39680;SDS011;26327;42.550;23.120;2024-01-15T13:09:33;5.38;;;3.22;;
39680;SDS011;26327;42.550;23.120;2024-01-15T13:12:00;7.68;;;2.42;;
39680;SDS011;26327;42.550;23.120;2024-01-15T13:14:26;30.98;;;7.35;;
39680;SDS011;26327;42.550;23.120;2024-01-15T13:20:13;7.53;;;2.85;;
39680;SDS011;26327;42.550;23.120;2024-01-15T13:22:39;6.25;;;3.65;;
39680;SDS011;26327;42.550;23.120;2024-01-15T13:25:05;9.95;;;4.30;;
39680;SDS011;26327;42.550;23.120;2024-01-15T13:27:32;10.68;;;3.92;;
39680;SDS011;26327;42.550;23.120;2024-01-15T13:30:00;5.90;;;3.28;;
39680;SDS011;26327;42.550;23.120;2024-01-15T13:32:25;6.40;;;3.33;;
39680;SDS011;26327;42.550;23.120;2024-01-15T13:34:51;9.07;;;4.07;;
39680;SDS011;26327;42.550;23.120;2024-01-15T13:37:17;7.47;;;3.13;;
39680;SDS011;26327;42.550;23.120;2024-01-15T13:39:42;11.20;;;4.88;;
39680;SDS011;26327;42.550;23.120;2024-01-15T13:42:07;9.02;;;4.55;;
39680;SDS011;26327;42.550;23.120;2024-01-15T13:44:36;13.00;;;6.00;;
39680;SDS011;26327;42.550;23.120;2024-01-15T13:47:02;15.15;;;7.13;;
39680;SDS011;26327;42.550;23.120;2024-01-15T13:49:28;11.32;;;4.35;;
39680;SDS011;26327;42.550;23.120;2024-01-15T13:51:53;12.70;;;7.13;;
39680;SDS011;26327;42.550;23.120;2024-01-15T13:54:19;11.63;;;5.35;;
39680;SDS011;26327;42.550;23.120;2024-01-15T13:56:45;15.98;;;7.43;;
39680;SDS011;26327;42.550;23.120;2024-01-15T13:59:12;9.07;;;3.80;;
39680;SDS011;26327;42.550;23.120;2024-01-15T14:01:38;11.18;;;5.18;;
39680;SDS011;26327;42.550;23.120;2024-01-15T14:04:03;12.20;;;4.97;;
39680;SDS011;26327;42.550;23.120;2024-01-15T14:09:50;10.93;;;5.70;;
39680;SDS011;26327;42.550;23.120;2024-01-15T14:12:16;14.93;;;5.82;;
39680;SDS011;26327;42.550;23.120;2024-01-15T14:14:41;15.75;;;8.68;;
39680;SDS011;26327;42.550;23.120;2024-01-15T14:17:06;12.57;;;7.07;;
39680;SDS011;26327;42.550;23.120;2024-01-15T14:19:32;6.35;;;2.92;;
39680;SDS011;26327;42.550;23.120;2024-01-15T14:21:58;9.98;;;3.50;;
39680;SDS011;26327;42.550;23.120;2024-01-15T14:24:23;5.22;;;2.50;;
39680;SDS011;26327;42.550;23.120;2024-01-15T14:26:49;5.22;;;2.97;;
39680;SDS011;26327;42.550;23.120;2024-01-15T14:29:14;12.77;;;5.00;;
39680;SDS011;26327;42.550;23.120;2024-01-15T14:31:40;11.13;;;4.47;;
39680;SDS011;26327;42.550;23.120;2024-01-15T14:34:05;8.32;;;3.70;;
39680;SDS011;26327;42.550;23.120;2024-01-15T14:36:32;10.30;;;5.38;;
39680;SDS011;26327;42.550;23.120;2024-01-15T14:38:58;10.43;;;3.72;;
39680;SDS011;26327;42.550;23.120;2024-01-15T14:41:23;6.65;;;3.10;;
39680;SDS011;26327;42.550;23.120;2024-01-15T14:43:49;15.20;;;5.25;;
39680;SDS011;26327;42.550;23.120;2024-01-15T14:46:14;11.85;;;3.97;;
39680;SDS011;26327;42.550;23.120;2024-01-15T14:48:40;10.13;;;3.22;;
39680;SDS011;26327;42.550;23.120;2024-01-15T14:51:05;8.07;;;3.03;;
39680;SDS011;26327;42.550;23.120;2024-01-15T14:53:31;10.38;;;2.90;;
39680;SDS011;26327;42.550;23.120;2024-01-15T14:55:57;9.15;;;3.40;;
39680;SDS011;26327;42.550;23.120;2024-01-15T14:58:22;9.25;;;3.58;;
39680;SDS011;26327;42.550;23.120;2024-01-15T15:00:48;5.55;;;3.05;;